Airfield :
LOGIN :

Register | Disclaimer

   EN    FR    IT 

 










Legend :    VFR   Marginal VFR   IFR   Intensive IFR   Very Intensive IFR
Visi :
Ceiling :
>= 8 km
>= 3000ft
5 to 8 km
1000 to 3000 ft
1500m to 5 km
500 to 1000 ft
800 to 1500m
200 to 500 ft
< 800m
< 200 ft
Symbols :   Thunderstorms  Fog  Heavy snow  Heavy precipitations  Wind > 20 kt
SIGMETs :     Misc.  Thunderstorms  Icing  Turbulence  Mountain Waves  Volcanic Ashes






- Airport Elevation : 465 ft
- IATA code : LEJ


EDDP - Leipzig Halle

CURRENT METAR :
  • 272350Z 26013KT CAVOK 10/04 Q1016 NOSIG

EXPIRED METARs :
  • 272320Z 26012KT CAVOK 09/04 Q1016 NOSIG
  • 272250Z 26010KT CAVOK 09/03 Q1017 NOSIG
  • 272220Z 27011KT CAVOK 11/04 Q1017 NOSIG
  • 272150Z 26010KT CAVOK 09/04 Q1017 NOSIG
  • 272120Z 28011KT CAVOK 12/04 Q1017 NOSIG

TAF TAF EDDP
Valid from the 28 at 00:00 until the 29 at 00:00 UTC


272300Z 2800/2824 27012KT 9999 FEW035
BECMG 2805/2807 28020G30KT
PROB30
TEMPO 2809/2814 29025G35KT SHRA BKN030CB
BECMG 2816/2819 29007KT



MET'MAP, your aeronautical weather chart ! - Copyright ORBIFLY December 2007 - Disclaimer

ORBIFLY MET'MAP TEAM :

Programming & Development : Alexandra Zaïnal
Original concept : Baudouin d'Aumeries
Technical & hardware support : Manuel Goepfert
Assistance : Marc-Olivier Méhu

Contact : metmap@orbifly.com




SOURCES & CREDITS :

   NOAA